Time;durP1;ratioP1;P1;durP2;ratioP2;P2;SDS_P1;SDS_P2;PMS_P1;PMS_P2;Temp;Humidity;BMP_temperature;BMP_pressure;BME280_temperature;BME280_humidity;BME280_pressure;Samples;Min_cycle;Max_cycle;Signal;HPM_P1;HPM_P2
2021/11/18 00:00:43;;;;;;;6.23;5.40;;;;;;;;;;5073242;28;20835;-71
2021/11/18 00:03:11;;;;;;;6.50;5.30;;;;;;;;;;5069943;28;20461;-72
2021/11/18 00:05:38;;;;;;;7.23;6.00;;;;;;;;;;5070423;28;20811;-72
2021/11/18 00:08:06;;;;;;;6.87;6.00;;;;;;;;;;5070235;28;21024;-72
2021/11/18 00:10:35;;;;;;;6.50;5.70;;;;;;;;;;5073208;28;20454;-71
2021/11/18 00:13:04;;;;;;;7.13;6.00;;;;;;;;;;5077114;28;20480;-70
2021/11/18 00:15:32;;;;;;;8.20;5.10;;;;;;;;;;5077362;28;20544;-70
2021/11/18 00:18:00;;;;;;;6.50;5.10;;;;;;;;;;5073100;28;20889;-71
2021/11/18 00:20:29;;;;;;;6.43;5.13;;;;;;;;;;5073472;28;20460;-71
2021/11/18 00:22:57;;;;;;;8.37;4.97;;;;;;;;;;5072248;28;20454;-70
2021/11/18 00:25:24;;;;;;;6.67;4.87;;;;;;;;;;5084761;28;20448;-71
2021/11/18 00:27:53;;;;;;;8.53;4.83;;;;;;;;;;5092728;28;20445;-70
2021/11/18 00:30:20;;;;;;;5.30;4.60;;;;;;;;;;5087373;28;20445;-70
2021/11/18 00:32:48;;;;;;;9.23;6.20;;;;;;;;;;5071755;28;20560;-70
2021/11/18 00:35:16;;;;;;;6.40;5.80;;;;;;;;;;5078195;28;20540;-70
2021/11/18 00:37:44;;;;;;;5.43;4.83;;;;;;;;;;5080103;28;20447;-70
2021/11/18 00:40:12;;;;;;;5.33;4.30;;;;;;;;;;5092392;28;20531;-70
2021/11/18 00:42:40;;;;;;;7.27;5.57;;;;;;;;;;5080647;28;20544;-70
2021/11/18 00:45:10;;;;;;;4.67;3.93;;;;;;;;;;5073369;28;20969;-70
2021/11/18 00:47:37;;;;;;;5.73;4.60;;;;;;;;;;5072804;28;20453;-71
2021/11/18 00:50:05;;;;;;;6.40;5.20;;;;;;;;;;5087503;28;20449;-70
2021/11/18 00:52:32;;;;;;;6.03;5.10;;;;;;;;;;5084153;28;20478;-70
2021/11/18 00:54:59;;;;;;;8.10;4.73;;;;;;;;;;5075647;28;20517;-70
2021/11/18 00:57:26;;;;;;;5.77;4.70;;;;;;;;;;5083618;28;20449;-70
2021/11/18 00:59:53;;;;;;;6.40;4.80;;;;;;;;;;5080486;28;20445;-71
2021/11/18 01:02:22;;;;;;;6.03;4.77;;;;;;;;;;5069997;28;20540;-70
2021/11/18 01:04:49;;;;;;;8.20;4.67;;;;;;;;;;5073794;28;20606;-71
2021/11/18 01:07:16;;;;;;;6.07;4.07;;;;;;;;;;5073109;28;20445;-71
2021/11/18 01:09:43;;;;;;;7.20;4.77;;;;;;;;;;5075773;28;20453;-71
2021/11/18 01:12:11;;;;;;;7.33;4.40;;;;;;;;;;5073031;28;20481;-71
2021/11/18 01:14:39;;;;;;;8.70;4.87;;;;;;;;;;5079705;28;20457;-70
2021/11/18 01:17:07;;;;;;;5.17;4.10;;;;;;;;;;5073010;28;20441;-70
2021/11/18 01:19:37;;;;;;;5.77;4.43;;;;;;;;;;5076978;28;20536;-71
2021/11/18 01:22:06;;;;;;;5.53;3.93;;;;;;;;;;5090568;28;20440;-70
2021/11/18 01:24:33;;;;;;;5.97;4.83;;;;;;;;;;5086191;28;20450;-70
2021/11/18 01:27:00;;;;;;;5.17;3.83;;;;;;;;;;5071621;28;21090;-70
2021/11/18 01:29:29;;;;;;;5.70;4.00;;;;;;;;;;5078417;28;20974;-70
2021/11/18 01:31:56;;;;;;;5.60;4.63;;;;;;;;;;5091735;28;20529;-70
2021/11/18 01:34:23;;;;;;;6.50;4.53;;;;;;;;;;5082488;28;20449;-70
2021/11/18 01:36:52;;;;;;;5.00;3.93;;;;;;;;;;5071577;28;20445;-69
2021/11/18 01:39:19;;;;;;;5.70;4.70;;;;;;;;;;5072479;28;20446;-70
2021/11/18 01:41:47;;;;;;;5.50;4.60;;;;;;;;;;5071530;28;20468;-70
2021/11/18 01:44:16;;;;;;;4.97;4.40;;;;;;;;;;5072473;28;20445;-70
2021/11/18 01:46:43;;;;;;;5.23;3.80;;;;;;;;;;5071854;28;20532;-70
2021/11/18 01:49:11;;;;;;;5.77;4.50;;;;;;;;;;5071634;28;20972;-70
2021/11/18 01:51:41;;;;;;;4.47;4.00;;;;;;;;;;5073867;28;20535;-71
2021/11/18 01:54:10;;;;;;;5.57;4.10;;;;;;;;;;5082316;28;20511;-71
2021/11/18 01:56:37;;;;;;;6.67;4.00;;;;;;;;;;5076705;28;20961;-70
2021/11/18 01:59:08;;;;;;;5.83;4.77;;;;;;;;;;5081230;28;20544;-70
2021/11/18 02:01:35;;;;;;;7.50;4.73;;;;;;;;;;5070838;28;20456;-70
2021/11/18 02:04:07;;;;;;;5.53;4.77;;;;;;;;;;5070965;28;20906;-70
2021/11/18 02:06:35;;;;;;;5.30;4.60;;;;;;;;;;5076949;28;20520;-71
2021/11/18 02:09:03;;;;;;;8.10;5.63;;;;;;;;;;5078515;28;20540;-70
2021/11/18 02:11:32;;;;;;;5.77;4.93;;;;;;;;;;5070653;28;21011;-70
2021/11/18 02:14:00;;;;;;;5.40;3.97;;;;;;;;;;5063384;28;20450;-70
2021/11/18 02:16:28;;;;;;;7.03;4.73;;;;;;;;;;5071222;28;20456;-71
2021/11/18 02:18:56;;;;;;;5.93;4.17;;;;;;;;;;5072399;28;20976;-70
2021/11/18 02:21:24;;;;;;;4.87;4.37;;;;;;;;;;5077291;28;20543;-70
2021/11/18 02:23:53;;;;;;;4.60;4.20;;;;;;;;;;5071476;28;20885;-70
2021/11/18 02:26:21;;;;;;;4.83;4.17;;;;;;;;;;5084736;28;20456;-71
2021/11/18 02:28:52;;;;;;;5.53;4.53;;;;;;;;;;5085512;28;20444;-70
2021/11/18 02:31:21;;;;;;;7.90;4.60;;;;;;;;;;5082186;28;20441;-70
2021/11/18 02:33:49;;;;;;;5.70;5.00;;;;;;;;;;5072606;28;20484;-70
2021/11/18 02:36:16;;;;;;;5.33;4.50;;;;;;;;;;5080315;28;20537;-70
2021/11/18 02:38:45;;;;;;;6.13;4.13;;;;;;;;;;5074556;28;20446;-71
2021/11/18 02:41:13;;;;;;;9.30;4.03;;;;;;;;;;5075117;28;20452;-70
2021/11/18 02:43:41;;;;;;;5.00;3.77;;;;;;;;;;5079078;28;20456;-72
2021/11/18 02:46:09;;;;;;;5.40;3.63;;;;;;;;;;5091861;28;20454;-71
2021/11/18 02:48:37;;;;;;;5.10;4.53;;;;;;;;;;5090723;28;20452;-71
2021/11/18 02:51:06;;;;;;;5.60;4.27;;;;;;;;;;5071284;28;20449;-71
2021/11/18 02:53:33;;;;;;;5.80;4.37;;;;;;;;;;5070941;28;20468;-71
2021/11/18 02:56:02;;;;;;;8.40;4.23;;;;;;;;;;5070394;28;20484;-71
2021/11/18 02:58:30;;;;;;;6.70;4.50;;;;;;;;;;5070759;28;20543;-71
2021/11/18 03:00:59;;;;;;;5.27;4.30;;;;;;;;;;5070033;28;20456;-71
2021/11/18 03:03:26;;;;;;;6.23;4.13;;;;;;;;;;5087896;28;20463;-73
2021/11/18 03:05:54;;;;;;;4.83;3.67;;;;;;;;;;5070053;28;20910;-71
2021/11/18 03:08:22;;;;;;;4.13;3.73;;;;;;;;;;5076993;28;20440;-71
2021/11/18 03:10:49;;;;;;;6.40;4.03;;;;;;;;;;5077723;28;20461;-71
2021/11/18 03:13:18;;;;;;;4.67;3.90;;;;;;;;;;5070380;28;20477;-71
2021/11/18 03:15:46;;;;;;;5.20;4.10;;;;;;;;;;5076445;28;20453;-71
2021/11/18 03:18:13;;;;;;;5.70;3.90;;;;;;;;;;5073471;28;20548;-71
2021/11/18 03:20:41;;;;;;;5.90;3.40;;;;;;;;;;5070967;28;20453;-70
2021/11/18 03:23:09;;;;;;;5.90;4.70;;;;;;;;;;5077222;28;20535;-70
2021/11/18 03:25:38;;;;;;;5.30;4.20;;;;;;;;;;5078323;28;20855;-71
2021/11/18 03:28:06;;;;;;;5.10;3.77;;;;;;;;;;5079553;28;20486;-71
2021/11/18 03:30:36;;;;;;;6.30;4.47;;;;;;;;;;5090643;28;20535;-71
2021/11/18 03:33:06;;;;;;;5.53;4.77;;;;;;;;;;5070004;28;20469;-70
2021/11/18 03:35:33;;;;;;;6.30;4.73;;;;;;;;;;5070137;28;20449;-71
2021/11/18 03:38:01;;;;;;;5.10;4.30;;;;;;;;;;5069749;28;20875;-71
2021/11/18 03:40:29;;;;;;;5.83;4.20;;;;;;;;;;5070633;28;20450;-70
2021/11/18 03:42:56;;;;;;;5.53;5.03;;;;;;;;;;5071878;28;20453;-70
2021/11/18 03:45:25;;;;;;;6.53;5.00;;;;;;;;;;5074340;28;20539;-70
2021/11/18 03:47:53;;;;;;;5.50;4.70;;;;;;;;;;5080666;28;20441;-71
2021/11/18 03:50:21;;;;;;;7.00;5.97;;;;;;;;;;5093452;28;20534;-70
2021/11/18 03:52:48;;;;;;;8.50;6.33;;;;;;;;;;5081675;28;20572;-70
2021/11/18 03:55:17;;;;;;;5.43;3.70;;;;;;;;;;5074579;28;20948;-71
2021/11/18 03:57:44;;;;;;;5.37;4.87;;;;;;;;;;5073335;28;20441;-70
2021/11/18 04:00:14;;;;;;;5.43;4.43;;;;;;;;;;5074379;28;20456;-71
2021/11/18 04:02:41;;;;;;;6.33;4.57;;;;;;;;;;5079649;28;20445;-69
2021/11/18 04:05:10;;;;;;;5.37;4.10;;;;;;;;;;5094083;28;20995;-70
2021/11/18 04:07:39;;;;;;;7.97;5.20;;;;;;;;;;5077707;28;20449;-71
2021/11/18 04:10:07;;;;;;;5.87;4.70;;;;;;;;;;5073455;28;20441;-71
2021/11/18 04:12:34;;;;;;;5.33;4.23;;;;;;;;;;5081188;28;20527;-70
2021/11/18 04:15:02;;;;;;;5.63;4.27;;;;;;;;;;5074476;28;20451;-70
2021/11/18 04:17:29;;;;;;;6.50;4.40;;;;;;;;;;5074337;28;20540;-70
2021/11/18 04:19:56;;;;;;;5.03;4.13;;;;;;;;;;5074868;28;20456;-71
2021/11/18 04:22:24;;;;;;;7.07;4.63;;;;;;;;;;5073045;28;20541;-70
2021/11/18 04:24:52;;;;;;;6.70;3.70;;;;;;;;;;5076826;28;20945;-70
2021/11/18 04:27:19;;;;;;;5.90;4.30;;;;;;;;;;5076384;28;20456;-70
2021/11/18 04:29:46;;;;;;;6.60;4.67;;;;;;;;;;5075717;28;20449;-70
2021/11/18 04:32:14;;;;;;;8.30;5.20;;;;;;;;;;5089181;28;20455;-70
2021/11/18 04:34:41;;;;;;;5.80;4.40;;;;;;;;;;5092341;28;20459;-70
2021/11/18 04:37:09;;;;;;;6.00;4.70;;;;;;;;;;5081264;28;20445;-70
2021/11/18 04:39:37;;;;;;;7.70;5.00;;;;;;;;;;5081468;28;20875;-71
2021/11/18 04:42:05;;;;;;;8.27;4.90;;;;;;;;;;5078585;28;20459;-70
2021/11/18 04:44:32;;;;;;;6.20;5.50;;;;;;;;;;5072988;28;20453;-70
2021/11/18 04:47:00;;;;;;;5.87;4.90;;;;;;;;;;5074030;28;20536;-71
2021/11/18 04:49:27;;;;;;;6.67;5.07;;;;;;;;;;5073492;28;20454;-70
2021/11/18 04:51:54;;;;;;;9.60;5.27;;;;;;;;;;5071797;28;20441;-70
2021/11/18 04:54:21;;;;;;;6.07;4.87;;;;;;;;;;5071775;28;20477;-70
2021/11/18 04:56:50;;;;;;;7.47;6.10;;;;;;;;;;5073569;28;20485;-71
2021/11/18 04:59:17;;;;;;;10.50;4.97;;;;;;;;;;5084351;28;20472;-70
2021/11/18 05:01:44;;;;;;;7.77;5.73;;;;;;;;;;5072060;28;20461;-70
2021/11/18 05:04:12;;;;;;;7.77;5.37;;;;;;;;;;5072683;28;20484;-70
2021/11/18 05:06:39;;;;;;;6.50;5.27;;;;;;;;;;5090368;28;20449;-70
2021/11/18 05:09:08;;;;;;;9.27;6.43;;;;;;;;;;5073207;28;20480;-71
2021/11/18 05:11:35;;;;;;;6.33;5.17;;;;;;;;;;5072475;28;20449;-70
2021/11/18 05:14:04;;;;;;;7.90;6.17;;;;;;;;;;5072396;28;21000;-70
2021/11/18 05:16:32;;;;;;;7.63;6.23;;;;;;;;;;5078410;28;20849;-72
2021/11/18 05:18:59;;;;;;;10.43;5.40;;;;;;;;;;5071867;28;20533;-71
2021/11/18 05:21:29;;;;;;;6.13;5.50;;;;;;;;;;5079735;28;20813;-71
2021/11/18 05:23:56;;;;;;;6.70;5.70;;;;;;;;;;5092218;28;20459;-70
2021/11/18 05:26:24;;;;;;;8.30;6.17;;;;;;;;;;5093113;28;20547;-71
2021/11/18 05:28:52;;;;;;;7.10;5.57;;;;;;;;;;5092312;28;20453;-71
2021/11/18 05:31:21;;;;;;;6.53;5.43;;;;;;;;;;5092846;28;20477;-72
2021/11/18 05:33:49;;;;;;;7.43;5.40;;;;;;;;;;5073836;28;20477;-72
2021/11/18 05:36:18;;;;;;;7.60;5.53;;;;;;;;;;5072825;28;20817;-72
2021/11/18 05:38:45;;;;;;;11.63;8.20;;;;;;;;;;5071836;28;20525;-72
2021/11/18 05:41:12;;;;;;;8.77;5.57;;;;;;;;;;5081613;28;20477;-72
2021/11/18 05:43:42;;;;;;;6.60;5.70;;;;;;;;;;5092573;28;20723;-74
2021/11/18 05:46:10;;;;;;;7.97;5.40;;;;;;;;;;5092736;28;20498;-74
2021/11/18 05:48:39;;;;;;;7.50;6.70;;;;;;;;;;5078746;28;20815;-71
2021/11/18 05:51:07;;;;;;;8.87;5.73;;;;;;;;;;5072073;28;20452;-71
2021/11/18 05:53:36;;;;;;;7.07;6.27;;;;;;;;;;5072036;28;20539;-71
2021/11/18 05:56:05;;;;;;;7.90;6.17;;;;;;;;;;5071573;28;20456;-73
2021/11/18 05:58:33;;;;;;;11.10;5.90;;;;;;;;;;5072305;28;20903;-70
2021/11/18 06:01:00;;;;;;;7.70;6.50;;;;;;;;;;5074283;28;20536;-69
2021/11/18 06:03:27;;;;;;;7.37;5.60;;;;;;;;;;5072128;28;20532;-70
2021/11/18 06:05:56;;;;;;;7.40;5.40;;;;;;;;;;5070567;28;20481;-70
2021/11/18 06:08:23;;;;;;;10.40;5.10;;;;;;;;;;5071788;28;20452;-70
2021/11/18 06:10:51;;;;;;;7.80;5.50;;;;;;;;;;5071507;28;20453;-70
2021/11/18 06:13:18;;;;;;;8.30;5.47;;;;;;;;;;5071692;28;20481;-70
2021/11/18 06:15:45;;;;;;;7.23;6.20;;;;;;;;;;5071574;28;20446;-70
2021/11/18 06:18:12;;;;;;;6.93;5.27;;;;;;;;;;5071367;28;20446;-70
2021/11/18 06:20:40;;;;;;;9.23;5.83;;;;;;;;;;5071604;28;20445;-70
2021/11/18 06:23:09;;;;;;;9.80;6.13;;;;;;;;;;5071625;28;20457;-70
2021/11/18 06:25:37;;;;;;;9.00;7.03;;;;;;;;;;5071689;28;20457;-70
2021/11/18 06:28:04;;;;;;;12.40;7.40;;;;;;;;;;5070852;28;20453;-70
2021/11/18 06:30:32;;;;;;;11.17;6.07;;;;;;;;;;5071313;28;20456;-70
2021/11/18 06:32:59;;;;;;;8.00;5.90;;;;;;;;;;5070717;28;20460;-70
2021/11/18 06:35:27;;;;;;;10.27;6.40;;;;;;;;;;5071192;28;20460;-70
2021/11/18 06:37:56;;;;;;;9.23;7.07;;;;;;;;;;5070767;28;20894;-69
2021/11/18 06:40:25;;;;;;;7.23;5.33;;;;;;;;;;5071521;28;20472;-70
2021/11/18 06:42:52;;;;;;;11.87;5.93;;;;;;;;;;5071030;28;20456;-72
2021/11/18 06:45:21;;;;;;;8.10;6.10;;;;;;;;;;5071496;28;20471;-69
2021/11/18 06:47:48;;;;;;;10.87;6.33;;;;;;;;;;5070938;28;20475;-69
2021/11/18 06:50:15;;;;;;;8.60;5.97;;;;;;;;;;5071101;28;20453;-69
2021/11/18 06:52:43;;;;;;;7.90;5.87;;;;;;;;;;5070675;28;20937;-69
2021/11/18 06:55:11;;;;;;;9.70;6.80;;;;;;;;;;5071217;28;20485;-69
2021/11/18 06:57:39;;;;;;;9.67;6.63;;;;;;;;;;5071066;28;20453;-69
2021/11/18 07:00:08;;;;;;;8.80;6.60;;;7.40;99.90;;;;;;5070905;28;20780;-69
2021/11/18 07:02:35;;;;;;;10.20;6.50;;;8.30;99.90;;;;;;5071276;28;20824;-69
2021/11/18 07:05:02;;;;;;;10.30;6.80;;;8.30;99.90;;;;;;5070376;28;20481;-70
2021/11/18 07:07:29;;;;;;;10.70;6.20;;;8.30;99.90;;;;;;5071292;28;20532;-69
2021/11/18 07:09:56;;;;;;;13.13;6.40;;;8.40;99.90;;;;;;5070255;28;20456;-69
2021/11/18 07:12:23;;;;;;;8.80;6.20;;;8.40;99.90;;;;;;5070939;28;20445;-69
2021/11/18 07:14:52;;;;;;;13.73;6.70;;;8.40;99.90;;;;;;5070481;28;20918;-69
2021/11/18 07:17:19;;;;;;;10.10;7.20;;;8.50;99.90;;;;;;5071085;28;20459;-69
2021/11/18 07:19:46;;;;;;;10.33;6.33;;;8.50;99.90;;;;;;5070276;28;20445;-69
2021/11/18 07:22:14;;;;;;;12.00;7.20;;;8.50;99.90;;;;;;5071140;28;20445;-69
2021/11/18 07:24:41;;;;;;;11.83;7.00;;;8.40;99.90;;;;;;5070760;28;20556;-66
2021/11/18 07:27:08;;;;;;;10.30;6.60;;;8.40;99.90;;;;;;5071081;28;20441;-69
2021/11/18 07:29:36;;;;;;;9.73;5.70;;;8.40;99.90;;;;;;5070585;28;20818;-70
2021/11/18 07:32:05;;;;;;;8.87;5.90;;;8.40;99.90;;;;;;5070076;28;20624;-69
2021/11/18 07:34:32;;;;;;;12.40;8.00;;;8.30;99.90;;;;;;5070835;28;20497;-69
2021/11/18 07:36:59;;;;;;;11.50;6.43;;;8.40;99.90;;;;;;5069985;28;20528;-71
2021/11/18 07:39:26;;;;;;;8.57;6.10;;;8.60;99.90;;;;;;5070404;28;20532;-69
2021/11/18 07:41:55;;;;;;;10.30;6.63;;;8.60;77.40;;;;;;5069735;28;20473;-69
2021/11/18 07:44:22;;;;;;;10.63;6.47;;;8.50;43.50;;;;;;5070718;28;20460;-69
2021/11/18 07:46:49;;;;;;;8.80;6.43;;;8.50;99.90;;;;;;5069889;28;20477;-70
2021/11/18 07:49:18;;;;;;;10.00;7.00;;;8.60;99.90;;;;;;5070720;28;20545;-69
2021/11/18 07:51:45;;;;;;;9.93;6.70;;;8.60;99.90;;;;;;5070074;28;20452;-69
2021/11/18 07:54:16;;;;;;;10.93;8.50;;;8.80;99.90;;;;;;5070902;28;20506;-69
2021/11/18 07:56:43;;;;;;;11.40;6.23;;;8.70;99.90;;;;;;5070187;28;20457;-69
2021/11/18 07:59:11;;;;;;;10.10;6.20;;;8.80;99.90;;;;;;5070004;28;20481;-72
2021/11/18 08:01:39;;;;;;;13.50;7.20;;;8.80;99.90;;;;;;5070344;28;20488;-70
2021/11/18 08:04:08;;;;;;;13.53;7.00;;;8.70;99.90;;;;;;5070360;28;20993;-70
2021/11/18 08:06:36;;;;;;;11.17;8.27;;;8.70;65.00;;;;;;5070396;28;20452;-70
2021/11/18 08:09:04;;;;;;;10.23;6.10;;;8.50;99.90;;;;;;5069358;28;20531;-70
2021/11/18 08:11:33;;;;;;;9.90;6.43;;;8.50;99.90;;;;;;5070649;28;20481;-70
2021/11/18 08:14:01;;;;;;;11.67;7.50;;;8.50;99.90;;;;;;5069749;28;20492;-70
2021/11/18 08:16:29;;;;;;;13.83;7.10;;;8.50;99.90;;;;;;5070521;28;20445;-70
2021/11/18 08:18:56;;;;;;;13.73;8.17;;;8.60;99.90;;;;;;5069208;28;20453;-70
2021/11/18 08:21:24;;;;;;;16.40;6.93;;;8.50;99.90;;;;;;5070218;28;20455;-69
2021/11/18 08:23:52;;;;;;;13.00;8.53;;;8.50;99.90;;;;;;5069946;28;20790;-70
2021/11/18 08:26:21;;;;;;;11.23;7.23;;;8.70;99.90;;;;;;5070261;28;20532;-70
2021/11/18 08:28:47;;;;;;;14.17;8.03;;;8.60;96.10;;;;;;5069624;28;20488;-69
2021/11/18 08:31:16;;;;;;;12.50;8.40;;;8.80;14.30;;;;;;5074167;28;20958;-70
2021/11/18 08:33:44;;;;;;;17.90;9.27;;;8.80;1.00;;;;;;5073272;28;20493;-69
2021/11/18 08:36:11;;;;;;;15.90;8.80;;;8.70;1.00;;;;;;5073686;28;21025;-70
2021/11/18 08:38:38;;;;;;;18.47;9.60;;;8.70;1.00;;;;;;5073547;28;20453;-70
2021/11/18 08:41:09;;;;;;;14.43;8.77;;;8.60;28.80;;;;;;5072888;28;20455;-70
2021/11/18 08:43:39;;;;;;;17.90;10.00;;;8.70;32.20;;;;;;5073847;28;20835;-70
2021/11/18 08:46:07;;;;;;;14.27;7.70;;;8.50;27.50;;;;;;5073438;28;20548;-70
2021/11/18 08:48:34;;;;;;;18.47;10.10;;;8.50;99.90;;;;;;5073211;28;20488;-70
2021/11/18 08:51:01;;;;;;;18.40;9.70;;;8.50;99.90;;;;;;5072559;28;20449;-70
2021/11/18 08:53:32;;;;;;;18.33;8.97;;;8.50;99.90;;;;;;5073523;28;20466;-70
2021/11/18 08:55:59;;;;;;;14.90;8.97;;;8.70;99.90;;;;;;5072881;28;20516;-70
2021/11/18 08:58:30;;;;;;;23.13;10.30;;;8.50;99.90;;;;;;5072844;28;20445;-70
2021/11/18 09:01:01;;;;;;;15.13;10.10;;;8.60;99.90;;;;;;5072584;28;20948;-70
2021/11/18 09:03:33;;;;;;;14.30;8.57;;;8.60;99.90;;;;;;5073160;28;20445;-70
2021/11/18 09:06:02;;;;;;;15.50;9.30;;;8.60;99.90;;;;;;5072836;28;21268;-69
2021/11/18 09:08:30;;;;;;;18.03;9.40;;;8.60;99.90;;;;;;5073008;28;20540;-70
2021/11/18 09:10:57;;;;;;;15.57;8.20;;;8.70;99.90;;;;;;5072667;28;20445;-70
2021/11/18 09:13:24;;;;;;;14.20;9.20;;;8.70;99.90;;;;;;5072944;28;20480;-70
2021/11/18 09:15:54;;;;;;;18.77;8.23;;;8.90;51.30;;;;;;5072578;28;20587;-69
2021/11/18 09:18:21;;;;;;;19.23;11.20;;;8.90;1.00;;;;;;5072834;28;20450;-70
2021/11/18 09:20:50;;;;;;;15.10;9.07;;;8.90;1.00;;;;;;5072109;28;20481;-69
2021/11/18 09:23:19;;;;;;;19.00;9.60;;;8.90;1.00;;;;;;5073179;28;20783;-69
2021/11/18 09:25:48;;;;;;;14.20;7.60;;;8.90;24.30;;;;;;5072013;28;20480;-70
2021/11/18 09:28:16;;;;;;;13.03;7.53;;;9.00;1.00;;;;;;5072275;28;20796;-70
2021/11/18 09:30:46;;;;;;;18.23;9.30;;;9.10;1.00;;;;;;5072308;28;20441;-70
2021/11/18 09:33:16;;;;;;;12.77;7.60;;;9.10;1.00;;;;;;5072623;28;20532;-70
2021/11/18 09:35:45;;;;;;;15.50;8.93;;;9.00;1.00;;;;;;5072261;28;20493;-69
2021/11/18 09:38:14;;;;;;;17.10;8.63;;;9.10;1.00;;;;;;5072470;28;20534;-70
2021/11/18 09:40:44;;;;;;;16.00;9.13;;;9.10;1.00;;;;;;5071959;28;20438;-67
2021/11/18 09:43:48;;;;;;;16.83;8.47;;;9.10;1.00;;;;;;5072739;28;20449;-70
2021/11/18 09:46:25;;;;;;;16.07;8.67;;;9.30;1.00;;;;;;5072741;28;20473;-70
2021/11/18 09:49:19;;;;;;;15.03;8.10;;;9.40;1.00;;;;;;5071478;28;20449;-70
2021/11/18 09:51:59;;;;;;;14.07;8.57;;;9.10;1.00;;;;;;5071572;28;21676;-70
2021/11/18 09:54:40;;;;;;;17.77;9.23;;;9.20;1.00;;;;;;5072069;28;20537;-70
2021/11/18 09:57:24;;;;;;;13.37;7.13;;;9.40;1.00;;;;;;5072462;28;20473;-70
2021/11/18 10:00:05;;;;;;;11.20;7.53;;;;;;;;;;5070939;28;20941;-69
2021/11/18 10:02:43;;;;;;;13.83;7.33;;;;;;;;;;5063985;28;20447;-70
2021/11/18 10:05:13;;;;;;;16.00;8.43;;;;;;;;;;5071756;28;20511;-70
2021/11/18 10:07:43;;;;;;;15.23;8.07;;;;;;;;;;5071828;28;20813;-70
2021/11/18 10:10:18;;;;;;;11.43;7.67;;;;;;;;;;5072116;28;20523;-70
2021/11/18 10:13:00;;;;;;;14.73;8.40;;;;;;;;;;5071526;28;20441;-70
2021/11/18 10:15:29;;;;;;;14.77;8.00;;;;;;;;;;5069599;28;20570;-70
2021/11/18 10:17:57;;;;;;;15.13;7.93;;;;;;;;;;5070448;28;20545;-70
2021/11/18 10:20:27;;;;;;;13.60;8.80;;;;;;;;;;5071884;28;20456;-70
2021/11/18 10:22:56;;;;;;;17.83;8.43;;;;;;;;;;5071191;28;20871;-71
2021/11/18 10:25:26;;;;;;;13.57;9.53;;;;;;;;;;5071803;28;20548;-70
2021/11/18 10:27:54;;;;;;;14.30;8.97;;;;;;;;;;5070441;28;20934;-70
2021/11/18 10:30:36;;;;;;;14.63;9.00;;;;;;;;;;5071666;28;20449;-72
2021/11/18 10:33:06;;;;;;;12.57;8.83;;;;;;;;;;5070754;28;20445;-70
2021/11/18 10:35:38;;;;;;;15.20;9.57;;;;;;;;;;5071568;28;20489;-70
2021/11/18 10:38:13;;;;;;;14.43;8.23;;;;;;;;;;5070324;28;20953;-70
2021/11/18 10:40:50;;;;;;;14.17;8.57;;;;;;;;;;5071570;28;20529;-70
2021/11/18 10:43:18;;;;;;;16.40;7.47;;;;;;;;;;5071329;28;20531;-69
2021/11/18 10:45:47;;;;;;;14.10;9.00;;;;;;;;;;5070752;28;20457;-70
2021/11/18 10:48:18;;;;;;;14.43;9.43;;;;;;;;;;5071177;28;20456;-70
2021/11/18 10:50:48;;;;;;;15.03;8.50;;;;;;;;;;5071078;28;20524;-70
2021/11/18 10:53:16;;;;;;;10.20;7.10;;;;;;;;;;5070972;28;20818;-70
2021/11/18 10:55:45;;;;;;;14.13;8.27;;;;;;;;;;5070871;28;20576;-70
2021/11/18 10:58:14;;;;;;;12.43;6.40;;;;;;;;;;5070954;28;20537;-70
2021/11/18 11:00:49;;;;;;;12.90;7.33;;;;;;;;;;5070607;28;20453;-67
2021/11/18 11:03:23;;;;;;;9.30;6.73;;;;;;;;;;5071065;28;20519;-70
2021/11/18 11:06:06;;;;;;;14.67;7.50;;;;;;;;;;5070748;28;20559;-70
2021/11/18 11:08:34;;;;;;;12.30;7.30;;;;;;;;;;5070567;28;20532;-70
2021/11/18 11:11:03;;;;;;;12.47;8.17;;;;;;;;;;5070590;28;20909;-70
2021/11/18 11:13:43;;;;;;;11.23;6.87;;;;;;;;;;5071171;28;20791;-70
2021/11/18 11:16:19;;;;;;;12.83;7.47;;;;;;;;;;5070956;28;20473;-70
2021/11/18 11:18:51;;;;;;;11.60;7.97;;;;;;;;;;5070402;28;20814;-70
2021/11/18 11:21:29;;;;;;;12.40;8.20;;;;;;;;;;5071042;28;20476;-69
2021/11/18 11:24:04;;;;;;;10.30;6.30;;;;;;;;;;5070282;28;20444;-70
2021/11/18 11:26:48;;;;;;;10.30;7.60;;;;;;;;;;5070853;28;20559;-70
2021/11/18 11:29:23;;;;;;;13.03;8.30;;;;;;;;;;5070863;28;20646;-70
2021/11/18 11:31:53;;;;;;;13.07;7.83;;;;;;;;;;5070477;28;20520;-70
2021/11/18 11:34:32;;;;;;;13.07;8.03;;;;;;;;;;5070436;28;20639;-70
2021/11/18 11:37:05;;;;;;;11.37;9.67;;;;;;;;;;5070355;28;20474;-70
2021/11/18 11:39:36;;;;;;;12.27;7.40;;;;;;;;;;5070306;28;20529;-70
2021/11/18 11:42:15;;;;;;;11.27;7.20;;;;;;;;;;5070024;28;20604;-70
2021/11/18 11:44:50;;;;;;;9.73;6.23;;;;;;;;;;5070546;28;20452;-70
2021/11/18 11:47:26;;;;;;;9.83;6.23;;;;;;;;;;5070686;28;20473;-70
2021/11/18 11:49:57;;;;;;;10.67;6.43;;;;;;;;;;5070359;28;20449;-70
2021/11/18 11:52:31;;;;;;;9.00;6.50;;;;;;;;;;5070901;28;20437;-70
2021/11/18 11:55:22;;;;;;;8.73;6.20;;;;;;;;;;5069875;28;20465;-70
2021/11/18 11:57:51;;;;;;;10.80;5.73;;;;;;;;;;5069534;28;20445;-70
2021/11/18 12:00:22;;;;;;;11.07;6.60;;;;;;;;;;5070727;28;20449;-70
2021/11/18 12:02:57;;;;;;;8.10;6.27;;;;;;;;;;5070224;28;20517;-70
2021/11/18 12:05:26;;;;;;;6.50;5.10;;;;;;;;;;5073508;28;20845;-70
2021/11/18 12:07:57;;;;;;;9.37;6.53;;;;;;;;;;5073386;28;20496;-70
2021/11/18 12:10:27;;;;;;;18.93;7.63;;;;;;;;;;5074454;28;20441;-70
2021/11/18 12:12:58;;;;;;;16.30;8.30;;;;;;;;;;5073781;28;20540;-70
2021/11/18 12:15:25;;;;;;;14.10;7.47;;;;;;;;;;5074279;28;20473;-71
2021/11/18 12:17:54;;;;;;;10.73;7.07;;;;;;;;;;5073311;28;20804;-71
2021/11/18 12:20:26;;;;;;;13.03;8.10;;;;;;;;;;5074298;28;20524;-71
2021/11/18 12:22:57;;;;;;;13.10;7.70;;;;;;;;;;5073606;28;20544;-70
2021/11/18 12:25:30;;;;;;;11.03;7.40;;;;;;;;;;5074095;28;20535;-70
2021/11/18 12:28:02;;;;;;;11.30;8.10;;;;;;;;;;5073133;28;20450;-70
2021/11/18 12:30:49;;;;;;;11.67;8.00;;;;;;;;;;5073759;28;20445;-70
2021/11/18 12:33:31;;;;;;;12.70;8.37;;;;;;;;;;5074249;28;20459;-70
2021/11/18 12:36:08;;;;;;;13.30;7.73;;;;;;;;;;5072874;28;20574;-70
2021/11/18 12:38:39;;;;;;;12.83;7.60;;;;;;;;;;5073473;28;20865;-70
2021/11/18 12:41:15;;;;;;;10.07;7.40;;;;;;;;;;5074089;28;20863;-70
2021/11/18 12:43:57;;;;;;;9.53;7.20;;;;;;;;;;5073287;28;20826;-70
2021/11/18 12:46:27;;;;;;;15.57;7.63;;;;;;;;;;5073680;28;20521;-70
2021/11/18 12:49:07;;;;;;;10.77;7.03;;;;;;;;;;5072348;28;20453;-70
2021/11/18 12:51:43;;;;;;;10.13;6.93;;;;;;;;;;5073366;28;20459;-70
2021/11/18 12:54:34;;;;;;;11.20;6.60;;;;;;;;;;5073440;28;20443;-70
2021/11/18 12:57:15;;;;;;;9.47;6.60;;;;;;;;;;5067457;28;20916;-70
2021/11/18 12:59:49;;;;;;;9.77;6.77;;;;;;;;;;5072935;28;20441;-70
2021/11/18 13:02:38;;;;;;;11.20;6.37;;;;;;;;;;5073315;28;20453;-71
2021/11/18 13:05:25;;;;;;;8.97;5.90;;;;;;;;;;5072679;28;20481;-71
2021/11/18 13:07:53;;;;;;;11.47;6.40;;;;;;;;;;5071814;28;20450;-71
2021/11/18 13:10:28;;;;;;;8.50;6.77;;;;;;;;;;5073316;28;20469;-71
2021/11/18 13:13:14;;;;;;;12.83;6.57;;;;;;;;;;5072763;28;20807;-71
2021/11/18 13:15:57;;;;;;;9.53;5.60;;;;;;;;;;5072010;28;20571;-67
2021/11/18 13:18:39;;;;;;;7.77;5.67;;;;;;;;;;5072281;28;20453;-71
2021/11/18 13:21:16;;;;;;;9.93;6.40;;;;;;;;;;5073076;28;20449;-71
2021/11/18 13:23:54;;;;;;;9.53;5.40;;;;;;;;;;5072763;28;20469;-70
2021/11/18 13:26:24;;;;;;;8.37;5.50;;;;;;;;;;5073009;28;20467;-71
2021/11/18 13:28:59;;;;;;;9.33;6.83;;;;;;;;;;5071750;28;20445;-70
2021/11/18 13:31:28;;;;;;;11.20;6.87;;;;;;;;;;5073096;28;20552;-71
2021/11/18 13:33:56;;;;;;;11.97;8.20;;;;;;;;;;5071945;28;20458;-70
2021/11/18 13:36:30;;;;;;;11.70;6.30;;;;;;;;;;5072767;28;20843;-71
2021/11/18 13:38:59;;;;;;;11.10;7.67;;;;;;;;;;5071733;28;20586;-71
2021/11/18 13:41:35;;;;;;;11.27;6.87;;;;;;;;;;5072630;28;20532;-71
2021/11/18 13:44:04;;;;;;;16.00;8.60;;;;;;;;;;5071776;28;21006;-70
2021/11/18 13:46:33;;;;;;;9.53;7.33;;;;;;;;;;5072339;28;20514;-71
2021/11/18 13:49:01;;;;;;;8.70;6.53;;;;;;;;;;5071561;28;20456;-71
2021/11/18 13:51:35;;;;;;;11.10;6.97;;;;;;;;;;5072210;28;20448;-70
2021/11/18 13:54:03;;;;;;;8.50;7.60;;;;;;;;;;5072040;28;20441;-71
2021/11/18 13:56:33;;;;;;;9.27;6.80;;;;;;;;;;5072353;28;20906;-71
2021/11/18 13:59:01;;;;;;;9.67;7.67;;;;;;;;;;5071509;28;20524;-70
2021/11/18 14:01:30;;;;;;;10.27;7.00;;;;;;;;;;5072195;28;20508;-70
2021/11/18 14:03:59;;;;;;;10.40;6.40;;;;;;;;;;5071366;28;20453;-71
2021/11/18 14:06:29;;;;;;;8.37;6.60;;;;;;;;;;5072169;28;20453;-71
2021/11/18 14:08:59;;;;;;;8.93;5.73;;;;;;;;;;5071313;28;20456;-70
2021/11/18 14:11:27;;;;;;;8.10;6.20;;;;;;;;;;5072075;28;20445;-70
2021/11/18 14:13:56;;;;;;;9.73;5.80;;;;;;;;;;5071118;28;20484;-70
2021/11/18 14:16:27;;;;;;;6.70;5.37;;;;;;;;;;5071874;28;20568;-71
2021/11/18 14:18:59;;;;;;;9.60;6.13;;;;;;;;;;5070701;28;20446;-70
2021/11/18 14:21:31;;;;;;;8.30;5.60;;;;;;;;;;5071995;28;20477;-71
2021/11/18 14:24:04;;;;;;;9.50;6.10;;;;;;;;;;5071300;28;20456;-71
2021/11/18 14:26:39;;;;;;;6.87;5.70;;;;;;;;;;5071047;28;20452;-71
2021/11/18 14:29:29;;;;;;;8.40;5.87;;;;;;;;;;5070652;28;20445;-71